createdAt,value
2017-06-28T00:00:39.065Z,997.74
2017-06-28T00:01:50.045Z,997.7
2017-06-28T00:03:01.087Z,997.67
2017-06-28T00:04:12.076Z,997.66
2017-06-28T00:05:23.288Z,997.64
2017-06-28T00:06:34.271Z,997.59
2017-06-28T00:07:45.269Z,997.56
2017-06-28T00:08:56.307Z,997.57
2017-06-28T00:10:07.294Z,997.58
2017-06-28T00:11:18.290Z,997.49
2017-06-28T00:12:29.478Z,997.49
2017-06-28T00:13:40.473Z,997.46
2017-06-28T00:14:51.711Z,997.43
2017-06-28T00:16:02.700Z,997.4
2017-06-28T00:17:13.692Z,997.36
2017-06-28T00:18:24.682Z,997.33
2017-06-28T00:19:35.676Z,997.33
2017-06-28T00:20:46.658Z,997.29
2017-06-28T00:21:57.646Z,997.3
2017-06-28T00:23:08.639Z,997.22
2017-06-28T00:24:19.842Z,997.23
2017-06-28T00:25:30.879Z,997.22
2017-06-28T00:26:41.863Z,997.17
2017-06-28T00:27:52.851Z,997.14
2017-06-28T00:29:03.847Z,997.12
2017-06-28T00:30:14.834Z,997.1
2017-06-28T00:31:25.872Z,997.08
2017-06-28T00:32:37.065Z,997.05
2017-06-28T00:33:48.054Z,997.08
2017-06-28T00:34:59.047Z,997
2017-06-28T00:36:10.033Z,997.01
2017-06-28T00:37:21.065Z,996.96
2017-06-28T00:38:32.048Z,996.94
2017-06-28T00:39:43.045Z,996.89
2017-06-28T00:40:54.031Z,996.9
2017-06-28T00:42:05.018Z,996.89
2017-06-28T00:43:16.252Z,996.87
2017-06-28T00:44:27.249Z,996.84
2017-06-28T00:45:38.237Z,996.85
2017-06-28T00:46:49.228Z,996.85
2017-06-28T00:48:00.222Z,996.83
2017-06-28T00:49:11.271Z,996.79
2017-06-28T00:50:22.258Z,996.76
2017-06-28T00:51:33.645Z,996.76
2017-06-28T00:52:44.630Z,996.71
2017-06-28T00:53:55.614Z,996.67
2017-06-28T00:55:06.652Z,996.62
2017-06-28T00:56:17.636Z,996.64
2017-06-28T00:57:28.624Z,996.63
2017-06-28T00:58:39.834Z,996.62
2017-06-28T00:59:50.829Z,996.57
2017-06-28T01:01:01.880Z,996.58
2017-06-28T01:02:12.867Z,996.58
2017-06-28T01:03:24.054Z,996.55
2017-06-28T01:04:35.049Z,996.51
2017-06-28T01:05:46.036Z,996.45
2017-06-28T01:06:57.277Z,996.45
2017-06-28T01:08:08.269Z,996.41
2017-06-28T01:09:19.266Z,996.4
2017-06-28T01:10:30.260Z,996.38
2017-06-28T01:11:41.278Z,996.37
2017-06-28T01:12:52.318Z,996.32
2017-06-28T01:14:03.309Z,996.3
2017-06-28T01:15:14.302Z,996.29
2017-06-28T01:16:25.525Z,996.31
2017-06-28T01:17:36.709Z,996.31
2017-06-28T01:18:47.959Z,996.27
2017-06-28T01:19:58.957Z,996.33
2017-06-28T01:21:09.946Z,996.31
2017-06-28T01:22:20.939Z,996.33
2017-06-28T01:23:31.925Z,996.3
2017-06-28T01:24:42.960Z,996.38
2017-06-28T01:25:53.959Z,996.32
2017-06-28T01:27:04.948Z,996.33
2017-06-28T01:28:15.935Z,996.3
2017-06-28T01:29:26.936Z,996.29
2017-06-28T01:30:38.131Z,996.32
2017-06-28T01:31:49.323Z,996.33
2017-06-28T01:33:00.316Z,996.35
2017-06-28T01:34:11.305Z,996.32
2017-06-28T01:35:22.359Z,996.35
2017-06-28T01:36:33.345Z,996.37
2017-06-28T01:37:44.346Z,996.29
2017-06-28T01:38:55.536Z,996.33
2017-06-28T01:40:06.732Z,996.32
2017-06-28T01:41:17.770Z,996.33
2017-06-28T01:42:28.971Z,996.31
2017-06-28T01:43:39.967Z,996.28
2017-06-28T01:44:51.157Z,996.28
2017-06-28T01:46:02.143Z,996.25
2017-06-28T01:47:13.181Z,996.26
2017-06-28T01:48:24.180Z,996.28
2017-06-28T01:49:35.184Z,996.26
2017-06-28T01:50:46.191Z,996.21
2017-06-28T01:51:57.178Z,996.2
2017-06-28T01:53:08.249Z,996.19
2017-06-28T01:54:19.440Z,996.17
2017-06-28T01:55:30.428Z,996.13
2017-06-28T01:56:41.411Z,996.07
2017-06-28T01:57:52.393Z,996.05
2017-06-28T01:59:03.435Z,996.09
2017-06-28T02:00:14.420Z,996.06
2017-06-28T02:01:25.609Z,996.08
2017-06-28T02:02:36.592Z,996.04
2017-06-28T02:03:47.574Z,996.03
2017-06-28T02:04:58.611Z,996.03
2017-06-28T02:06:09.593Z,996.02
2017-06-28T02:07:20.583Z,996.03
2017-06-28T02:08:31.571Z,995.99
2017-06-28T02:09:42.570Z,996
2017-06-28T02:10:53.556Z,995.95
2017-06-28T02:12:04.551Z,995.94
2017-06-28T02:13:15.543Z,995.97
2017-06-28T02:14:26.536Z,995.9
2017-06-28T02:15:37.571Z,995.92
2017-06-28T02:16:48.561Z,995.92
2017-06-28T02:17:59.763Z,995.92
2017-06-28T02:19:10.750Z,995.85
2017-06-28T02:20:21.944Z,995.86
2017-06-28T02:21:33.173Z,995.84
2017-06-28T02:22:44.362Z,995.82
2017-06-28T02:23:55.544Z,995.78
2017-06-28T02:25:06.536Z,995.73
2017-06-28T02:26:17.531Z,995.7
2017-06-28T02:27:28.571Z,995.7
2017-06-28T02:28:39.762Z,995.66
2017-06-28T02:29:50.755Z,995.64
2017-06-28T02:31:01.748Z,995.62
2017-06-28T02:32:12.736Z,995.6
2017-06-28T02:33:23.771Z,995.61
2017-06-28T02:34:34.756Z,995.64
2017-06-28T02:35:45.747Z,995.57
2017-06-28T02:36:56.732Z,995.58
2017-06-28T02:38:07.723Z,995.54
2017-06-28T02:39:18.761Z,995.48
2017-06-28T02:40:29.751Z,995.47
2017-06-28T02:41:40.945Z,995.45
2017-06-28T02:42:51.926Z,995.43
2017-06-28T02:44:02.915Z,995.4
2017-06-28T02:45:13.954Z,995.45
2017-06-28T02:46:24.946Z,995.46
2017-06-28T02:47:35.922Z,995.46
2017-06-28T02:48:46.912Z,995.51
2017-06-28T02:49:57.909Z,995.47
2017-06-28T02:51:08.946Z,995.47
2017-06-28T02:52:19.935Z,995.44
2017-06-28T02:53:30.925Z,995.53
2017-06-28T02:54:41.924Z,995.53
2017-06-28T02:55:53.114Z,995.53
2017-06-28T02:57:04.180Z,995.53
2017-06-28T02:58:15.157Z,995.46
2017-06-28T02:59:26.350Z,995.41
2017-06-28T03:00:37.336Z,995.43
2017-06-28T03:01:48.330Z,995.4
2017-06-28T03:02:59.571Z,995.4
2017-06-28T03:04:10.755Z,995.37
2017-06-28T03:05:21.738Z,995.35
2017-06-28T03:06:32.723Z,995.32
2017-06-28T03:07:43.746Z,995.3
2017-06-28T03:08:54.986Z,995.3
2017-06-28T03:10:05.967Z,995.32
2017-06-28T03:11:17.159Z,995.32
2017-06-28T03:12:28.153Z,995.31
2017-06-28T03:13:39.143Z,995.29
2017-06-28T03:14:50.184Z,995.31
2017-06-28T03:16:01.184Z,995.28
2017-06-28T03:17:12.173Z,995.22
2017-06-28T03:18:23.159Z,995.22
2017-06-28T03:19:34.143Z,995.21
2017-06-28T03:20:45.131Z,995.16
2017-06-28T03:21:56.117Z,995.17
2017-06-28T03:23:07.302Z,995.17
2017-06-28T03:24:18.289Z,995.13
2017-06-28T03:25:29.321Z,995.14
2017-06-28T03:26:40.309Z,995.13
2017-06-28T03:27:51.301Z,995.15
2017-06-28T03:29:02.346Z,995.13
2017-06-28T03:30:13.334Z,995.1
2017-06-28T03:31:24.366Z,995.1
2017-06-28T03:32:35.359Z,995.06
2017-06-28T03:33:46.350Z,995.03
2017-06-28T03:34:57.357Z,995.03
2017-06-28T03:36:08.349Z,994.98
2017-06-28T03:37:19.407Z,994.97
2017-06-28T03:38:30.404Z,994.91
2017-06-28T03:39:41.391Z,994.95
2017-06-28T03:40:52.383Z,994.9
2017-06-28T03:42:03.375Z,994.89
2017-06-28T03:43:14.411Z,994.88
2017-06-28T03:44:25.411Z,994.84
2017-06-28T03:45:36.402Z,994.84
2017-06-28T03:46:47.386Z,994.82
2017-06-28T03:47:58.370Z,994.85
2017-06-28T03:49:09.613Z,994.84
2017-06-28T03:50:20.611Z,994.85
2017-06-28T03:51:31.590Z,994.86
2017-06-28T03:52:42.581Z,994.89
2017-06-28T03:53:53.565Z,994.83
2017-06-28T03:55:04.609Z,994.84
2017-06-28T03:56:15.598Z,994.82
2017-06-28T03:57:26.580Z,994.87
2017-06-28T03:58:37.601Z,994.91
2017-06-28T03:59:48.593Z,994.89
2017-06-28T04:00:59.635Z,994.92
2017-06-28T04:02:10.622Z,994.94
2017-06-28T04:03:21.609Z,994.99
2017-06-28T04:04:32.588Z,994.92
2017-06-28T04:05:43.573Z,994.89
2017-06-28T04:06:54.622Z,994.86
2017-06-28T04:08:05.610Z,994.93
2017-06-28T04:09:16.650Z,994.95
2017-06-28T04:10:27.644Z,994.92
2017-06-28T04:11:38.836Z,994.9
2017-06-28T04:12:50.071Z,994.84
2017-06-28T04:14:01.063Z,994.81
2017-06-28T04:15:12.051Z,994.77
2017-06-28T04:16:23.047Z,994.77
2017-06-28T04:17:34.035Z,994.74
2017-06-28T04:18:45.070Z,994.7
2017-06-28T04:19:56.066Z,994.7
2017-06-28T04:21:07.047Z,994.69
2017-06-28T04:22:18.045Z,994.65
2017-06-28T04:23:29.025Z,994.67
2017-06-28T04:24:40.469Z,994.65
2017-06-28T04:25:51.455Z,994.71
2017-06-28T04:27:02.849Z,994.72
2017-06-28T04:28:13.846Z,994.69
2017-06-28T04:29:25.044Z,994.65
2017-06-28T04:30:36.242Z,994.59
2017-06-28T04:31:47.234Z,994.57
2017-06-28T04:32:58.420Z,994.62
2017-06-28T04:34:09.408Z,994.56
2017-06-28T04:35:20.442Z,994.58
2017-06-28T04:36:31.431Z,994.59
2017-06-28T04:37:42.421Z,994.57
2017-06-28T04:38:53.413Z,994.55
2017-06-28T04:40:04.402Z,994.57
2017-06-28T04:41:15.440Z,994.58
2017-06-28T04:42:26.428Z,994.54
2017-06-28T04:43:37.428Z,994.57
2017-06-28T04:44:48.424Z,994.57
2017-06-28T04:45:59.613Z,994.61
2017-06-28T04:47:10.646Z,994.59
2017-06-28T04:48:21.837Z,994.62
2017-06-28T04:49:32.826Z,994.6
2017-06-28T04:50:43.816Z,994.59
2017-06-28T04:51:55.002Z,994.64
2017-06-28T04:53:06.036Z,994.6
2017-06-28T04:54:17.226Z,994.59
2017-06-28T04:55:28.218Z,994.56
2017-06-28T04:56:39.207Z,994.59
2017-06-28T04:57:50.207Z,994.54
2017-06-28T04:59:01.249Z,994.52
2017-06-28T05:00:12.238Z,994.48
2017-06-28T05:01:23.226Z,994.41
2017-06-28T05:02:34.213Z,994.39
2017-06-28T05:03:45.218Z,994.35
2017-06-28T05:04:56.253Z,994.33
2017-06-28T05:06:07.437Z,994.34
2017-06-28T05:07:18.426Z,994.34
2017-06-28T05:08:29.414Z,994.36
2017-06-28T05:09:40.407Z,994.4
2017-06-28T05:10:51.401Z,994.32
2017-06-28T05:12:02.594Z,994.33
2017-06-28T05:13:13.780Z,994.29
2017-06-28T05:14:24.783Z,994.3
2017-06-28T05:15:36.025Z,994.28
2017-06-28T05:16:47.009Z,994.28
2017-06-28T05:17:57.996Z,994.33
2017-06-28T05:19:08.980Z,994.34
2017-06-28T05:20:20.380Z,994.37
2017-06-28T05:21:31.425Z,994.37
2017-06-28T05:22:42.412Z,994.37
2017-06-28T05:23:53.392Z,994.35
2017-06-28T05:25:04.789Z,994.37
2017-06-28T05:26:15.775Z,994.39
2017-06-28T05:27:26.812Z,994.43
2017-06-28T05:28:37.802Z,994.45
2017-06-28T05:29:48.799Z,994.42
2017-06-28T05:30:59.984Z,994.41
2017-06-28T05:32:10.962Z,994.46
2017-06-28T05:33:22.002Z,994.36
2017-06-28T05:34:32.995Z,994.33
2017-06-28T05:35:44.385Z,994.32
2017-06-28T05:36:55.370Z,994.32
2017-06-28T05:38:06.361Z,994.37
2017-06-28T05:39:17.400Z,994.37
2017-06-28T05:40:28.388Z,994.44
2017-06-28T05:41:39.612Z,994.4
2017-06-28T05:42:50.799Z,994.47
2017-06-28T05:44:02.000Z,994.44
2017-06-28T05:45:13.028Z,994.45
2017-06-28T05:46:24.018Z,994.46
2017-06-28T05:47:35.006Z,994.42
2017-06-28T05:48:46.000Z,994.41
2017-06-28T05:49:57.195Z,994.41
2017-06-28T05:51:08.254Z,994.36
2017-06-28T05:52:19.247Z,994.35
2017-06-28T05:53:30.242Z,994.35
2017-06-28T05:54:41.233Z,994.29
2017-06-28T05:55:52.225Z,994.39
2017-06-28T05:57:03.332Z,994.39
2017-06-28T05:58:14.530Z,994.39
2017-06-28T05:59:25.517Z,994.34
2017-06-28T06:00:36.508Z,994.38
2017-06-28T06:01:47.499Z,994.4
2017-06-28T06:02:58.546Z,994.4
2017-06-28T06:04:09.739Z,994.38
2017-06-28T06:05:20.734Z,994.37
2017-06-28T06:06:31.721Z,994.41
2017-06-28T06:07:42.705Z,994.48
2017-06-28T06:08:54.035Z,994.51
2017-06-28T06:10:05.031Z,994.6
2017-06-28T06:11:16.049Z,994.59
2017-06-28T06:12:27.052Z,994.64
2017-06-28T06:13:38.031Z,994.63
2017-06-28T06:14:49.068Z,994.64
2017-06-28T06:16:00.260Z,994.67
2017-06-28T06:17:11.254Z,994.64
2017-06-28T06:18:22.249Z,994.65
2017-06-28T06:19:33.241Z,994.64
2017-06-28T06:20:44.232Z,994.64
2017-06-28T06:21:55.226Z,994.65
2017-06-28T06:23:06.225Z,994.65
2017-06-28T06:24:17.235Z,994.65
2017-06-28T06:25:28.283Z,994.64
2017-06-28T06:26:39.271Z,994.58
2017-06-28T06:27:50.270Z,994.57
2017-06-28T06:29:01.264Z,994.49
2017-06-28T06:30:12.466Z,994.54
2017-06-28T06:31:23.507Z,994.57
2017-06-28T06:32:34.545Z,994.6
2017-06-28T06:33:45.542Z,994.45
2017-06-28T06:34:56.543Z,994.38
2017-06-28T06:36:07.529Z,994.36
2017-06-28T06:37:18.573Z,994.33
2017-06-28T06:38:29.566Z,994.34
2017-06-28T06:39:40.558Z,994.3
2017-06-28T06:40:51.546Z,994.29
2017-06-28T06:42:02.535Z,994.26
2017-06-28T06:43:13.573Z,994.23
2017-06-28T06:44:24.617Z,994.25
2017-06-28T06:45:35.807Z,994.29
2017-06-28T06:46:46.810Z,994.23
2017-06-28T06:47:57.815Z,994.25
2017-06-28T06:49:08.890Z,994.29
2017-06-28T06:50:19.877Z,994.25
2017-06-28T06:51:30.875Z,994.31
2017-06-28T06:52:41.871Z,994.28
2017-06-28T06:53:52.862Z,994.29
2017-06-28T06:55:03.898Z,994.31
2017-06-28T06:56:15.086Z,994.34
2017-06-28T06:57:26.072Z,994.38
2017-06-28T06:58:37.068Z,994.32
2017-06-28T06:59:48.072Z,994.3
2017-06-28T07:00:59.122Z,994.3
2017-06-28T07:02:10.113Z,994.39
2017-06-28T07:03:21.311Z,994.41
2017-06-28T07:04:32.506Z,994.38
2017-06-28T07:05:43.716Z,994.3
2017-06-28T07:06:54.709Z,994.29
2017-06-28T07:08:05.737Z,994.27
2017-06-28T07:09:16.930Z,994.27
2017-06-28T07:10:27.930Z,994.26
2017-06-28T07:11:38.974Z,994.21
2017-06-28T07:12:50.216Z,994.14
2017-06-28T07:14:01.222Z,994.17
2017-06-28T07:15:12.214Z,994.22
2017-06-28T07:16:23.208Z,994.26
2017-06-28T07:17:34.249Z,994.27
2017-06-28T07:18:45.244Z,994.27
2017-06-28T07:19:56.235Z,994.36
2017-06-28T07:21:07.432Z,994.42
2017-06-28T07:22:18.429Z,994.39
2017-06-28T07:23:29.500Z,994.26
2017-06-28T07:24:40.489Z,994.18
2017-06-28T07:25:51.489Z,994.16
2017-06-28T07:27:02.482Z,994.13
2017-06-28T07:28:13.468Z,994.07
2017-06-28T07:29:24.528Z,994.09
2017-06-28T07:30:35.737Z,994.06
2017-06-28T07:31:48.276Z,994.1
2017-06-28T07:33:08.297Z,994
2017-06-28T07:34:28.209Z,993.97
2017-06-28T07:35:39.404Z,993.97
2017-06-28T07:36:50.406Z,993.96
2017-06-28T07:38:01.464Z,993.98
2017-06-28T07:39:12.453Z,994.04
2017-06-28T07:40:23.653Z,994.04
2017-06-28T07:41:34.648Z,993.97
2017-06-28T07:42:47.638Z,993.93
2017-06-28T07:44:02.744Z,993.96
2017-06-28T07:46:32.100Z,993.98
2017-06-28T07:47:47.313Z,993.98
2017-06-28T07:49:00.693Z,994.02
2017-06-28T07:50:22.355Z,993.99
2017-06-28T07:51:34.172Z,994
2017-06-28T07:52:48.572Z,993.95
2017-06-28T07:54:07.252Z,993.91
2017-06-28T07:55:19.649Z,993.97
2017-06-28T07:56:31.547Z,993.94
2017-06-28T07:57:47.365Z,993.94
2017-06-28T07:59:03.749Z,993.94
2017-06-28T08:00:20.097Z,993.94
2017-06-28T08:01:34.800Z,993.95
2017-06-28T08:02:56.935Z,994.03
2017-06-28T08:04:22.533Z,994.07
2017-06-28T08:05:33.617Z,994.15
2017-06-28T08:06:46.730Z,994.12
2017-06-28T08:08:07.243Z,994.04
2017-06-28T08:09:28.069Z,993.98
2017-06-28T08:10:55.608Z,993.99
2017-06-28T08:12:11.006Z,994
2017-06-28T08:13:24.750Z,993.96
2017-06-28T08:14:35.862Z,993.92
2017-06-28T08:15:47.077Z,993.93
2017-06-28T08:16:58.242Z,993.92
2017-06-28T08:18:20.108Z,993.92
2017-06-28T08:19:38.627Z,993.91
2017-06-28T08:20:49.629Z,993.96
2017-06-28T08:22:00.720Z,993.98
2017-06-28T08:23:11.710Z,993.99
2017-06-28T08:24:22.740Z,993.96
2017-06-28T08:25:33.989Z,993.92
2017-06-28T08:26:46.400Z,993.94
2017-06-28T08:27:57.466Z,993.99
2017-06-28T08:29:08.508Z,993.97
2017-06-28T08:30:19.509Z,994.01
2017-06-28T08:31:30.654Z,993.98
2017-06-28T08:32:42.217Z,994.01
2017-06-28T08:33:53.467Z,994.01
2017-06-28T08:35:07.533Z,994.01
2017-06-28T08:36:21.829Z,994
2017-06-28T08:37:36.349Z,994.03
2017-06-28T08:38:49.440Z,994.04
2017-06-28T08:40:08.824Z,994.05
2017-06-28T08:41:19.819Z,994.06
2017-06-28T08:42:30.813Z,994.11
2017-06-28T08:43:41.880Z,994.1
2017-06-28T08:44:52.883Z,994.17
2017-06-28T08:46:04.281Z,994.22
2017-06-28T08:47:15.493Z,994.22
2017-06-28T08:48:26.494Z,994.33
2017-06-28T08:49:37.546Z,994.31
2017-06-28T08:50:48.548Z,994.32
2017-06-28T08:51:59.546Z,994.25
2017-06-28T08:53:10.540Z,994.3
2017-06-28T08:54:21.571Z,994.35
2017-06-28T08:55:32.634Z,994.39
2017-06-28T08:56:43.638Z,994.47
2017-06-28T08:57:54.635Z,994.87
2017-06-28T08:59:05.650Z,994.35
2017-06-28T09:00:16.846Z,994.3
2017-06-28T09:01:27.888Z,994.21
2017-06-28T09:02:39.146Z,994.16
2017-06-28T09:03:50.153Z,994.19
2017-06-28T09:05:01.166Z,994.19
2017-06-28T09:06:12.408Z,994.24
2017-06-28T09:07:23.658Z,994.27
2017-06-28T09:08:34.648Z,994.28
2017-06-28T09:09:45.677Z,994.27
2017-06-28T09:10:56.717Z,994.52
2017-06-28T09:12:07.714Z,995.05
2017-06-28T09:13:19.224Z,997.63
2017-06-28T09:14:31.171Z,995.25
2017-06-28T09:15:42.166Z,995.56
2017-06-28T09:16:53.163Z,996.68
2017-06-28T09:18:04.162Z,997.53
2017-06-28T09:19:16.231Z,997.94
2017-06-28T09:20:34.104Z,996.05
2017-06-28T09:21:45.528Z,995.96
2017-06-28T09:22:56.532Z,994.97
2017-06-28T09:24:07.534Z,995.67
2017-06-28T09:25:18.714Z,994.72
2017-06-28T09:26:32.078Z,994.08
2017-06-28T09:28:03.971Z,993.95
2017-06-28T09:29:15.314Z,993.81
2017-06-28T09:30:26.694Z,993.66
2017-06-28T09:31:37.746Z,993.57
2017-06-28T09:32:48.880Z,993.61
2017-06-28T09:34:01.445Z,993.69
2017-06-28T09:35:12.748Z,993.88
2017-06-28T09:36:24.832Z,993.67
2017-06-28T09:37:36.702Z,993.57
2017-06-28T09:38:47.736Z,993.69
2017-06-28T09:39:59.064Z,993.49
2017-06-28T09:41:11.635Z,993.5
2017-06-28T09:42:22.884Z,993.53
2017-06-28T09:43:34.413Z,993.61
2017-06-28T09:44:45.423Z,994.12
2017-06-28T09:45:56.420Z,993.59
2017-06-28T09:47:07.463Z,993.66
2017-06-28T09:48:18.491Z,994.69
2017-06-28T09:49:29.497Z,993.81
2017-06-28T09:50:40.503Z,993.67
2017-06-28T09:51:51.547Z,993.73
2017-06-28T09:53:02.997Z,993.7
2017-06-28T09:54:14.495Z,993.65
2017-06-28T09:55:25.749Z,993.59
2017-06-28T09:56:36.745Z,993.5
2017-06-28T09:57:47.745Z,993.43
2017-06-28T09:58:58.818Z,993.31
2017-06-28T10:00:09.882Z,993.29
2017-06-28T10:01:20.878Z,993.33
2017-06-28T10:02:38.231Z,993.35
2017-06-28T10:04:08.060Z,993.31
2017-06-28T10:05:19.059Z,993.32
2017-06-28T10:06:30.061Z,993.32
2017-06-28T10:07:41.115Z,993.32
2017-06-28T10:08:52.119Z,993.24
2017-06-28T10:10:03.106Z,993.31
2017-06-28T10:11:14.100Z,993.32
2017-06-28T10:12:25.116Z,993.34
2017-06-28T10:13:36.116Z,993.28
2017-06-28T10:14:47.317Z,993.14
2017-06-28T10:15:58.562Z,993.19
2017-06-28T10:17:09.790Z,993.09
2017-06-28T10:18:20.782Z,993.12
2017-06-28T10:19:31.785Z,993.08
2017-06-28T10:20:43.967Z,993.1
2017-06-28T10:21:56.257Z,993.07
2017-06-28T10:23:07.265Z,993.06
2017-06-28T10:24:18.476Z,993.06
2017-06-28T10:25:29.467Z,993.15
2017-06-28T10:26:40.462Z,993.12
2017-06-28T10:27:51.517Z,993.02
2017-06-28T10:29:02.605Z,993.02
2017-06-28T10:30:13.808Z,992.99
2017-06-28T10:31:24.796Z,993
2017-06-28T10:32:35.795Z,993
2017-06-28T10:33:46.846Z,992.94
2017-06-28T10:34:57.893Z,992.97
2017-06-28T10:36:08.886Z,992.94
2017-06-28T10:37:19.894Z,992.93
2017-06-28T10:38:30.912Z,992.9
2017-06-28T10:39:42.492Z,992.91
2017-06-28T10:40:53.507Z,992.85
2017-06-28T10:42:04.506Z,992.84
2017-06-28T10:43:15.712Z,992.79
2017-06-28T10:44:26.711Z,992.81
2017-06-28T10:45:37.762Z,992.85
2017-06-28T10:46:49.292Z,992.87
2017-06-28T10:48:00.828Z,992.85
2017-06-28T10:49:11.830Z,992.89
2017-06-28T10:50:22.824Z,992.86
2017-06-28T10:51:33.882Z,992.88
2017-06-28T10:52:44.877Z,992.91
2017-06-28T10:53:55.871Z,993
2017-06-28T10:55:07.059Z,993.02
2017-06-28T10:56:18.267Z,993
2017-06-28T10:57:29.538Z,992.99
2017-06-28T10:58:40.533Z,993.05
2017-06-28T10:59:51.543Z,993.1
2017-06-28T11:01:02.533Z,993.14
2017-06-28T11:02:13.560Z,993.16
2017-06-28T11:03:24.606Z,993.21
2017-06-28T11:04:35.624Z,993.16
2017-06-28T11:05:46.619Z,993.17
2017-06-28T11:06:58.030Z,993.1
2017-06-28T11:08:09.026Z,993.09
2017-06-28T11:09:20.646Z,993.12
2017-06-28T11:10:32.044Z,993.24
2017-06-28T11:11:43.047Z,993.27
2017-06-28T11:12:54.061Z,993.23
2017-06-28T11:14:05.309Z,993.27
2017-06-28T11:15:16.309Z,993.28
